createdAt,value
2018-06-18T00:00:58.386Z,18.92
2018-06-18T00:03:10.812Z,18.90
2018-06-18T00:05:23.217Z,18.88
2018-06-18T00:07:35.619Z,18.84
2018-06-18T00:09:47.983Z,18.81
2018-06-18T00:12:00.384Z,18.82
2018-06-18T00:14:13.514Z,18.80
2018-06-18T00:16:25.857Z,18.78
2018-06-18T00:18:38.310Z,18.75
2018-06-18T00:20:50.694Z,18.73
2018-06-18T00:23:03.102Z,18.72
2018-06-18T00:25:15.769Z,18.71
2018-06-18T00:27:28.179Z,18.72
2018-06-18T00:29:40.582Z,18.70
2018-06-18T00:31:52.918Z,18.74
2018-06-18T00:34:05.370Z,18.74
2018-06-18T00:36:17.975Z,18.73
2018-06-18T00:38:30.542Z,18.73
2018-06-18T00:40:42.912Z,18.76
2018-06-18T00:42:55.267Z,18.77
2018-06-18T00:45:07.737Z,18.76
2018-06-18T00:47:20.104Z,18.80
2018-06-18T00:49:32.486Z,18.78
2018-06-18T00:51:45.095Z,18.78
2018-06-18T00:53:57.575Z,18.80
2018-06-18T00:56:12.236Z,18.76
2018-06-18T00:58:24.606Z,18.74
2018-06-18T01:00:37.159Z,18.74
2018-06-18T01:02:49.733Z,18.72
2018-06-18T01:05:02.193Z,18.70
2018-06-18T01:07:14.594Z,18.65
2018-06-18T01:09:26.973Z,18.65
2018-06-18T01:11:39.346Z,18.63
2018-06-18T01:13:51.743Z,18.64
2018-06-18T01:16:04.259Z,18.62
2018-06-18T01:18:16.694Z,18.60
2018-06-18T01:20:29.026Z,18.58
2018-06-18T01:22:44.562Z,18.56
2018-06-18T01:25:01.423Z,18.56
2018-06-18T01:27:13.774Z,18.56
2018-06-18T01:29:26.158Z,18.57
2018-06-18T01:31:38.495Z,18.58
2018-06-18T01:33:52.648Z,18.56
2018-06-18T01:36:05.026Z,18.52
2018-06-18T01:38:17.387Z,18.51
2018-06-18T01:40:29.859Z,18.51
2018-06-18T01:42:42.218Z,18.53
2018-06-18T01:44:54.629Z,18.55
2018-06-18T01:47:07.239Z,18.53
2018-06-18T01:49:19.701Z,18.53
2018-06-18T01:51:32.262Z,18.52
2018-06-18T01:53:44.631Z,18.50
2018-06-18T01:55:57.118Z,18.47
2018-06-18T01:58:09.651Z,18.46
2018-06-18T02:00:22.164Z,18.42
2018-06-18T02:02:34.526Z,18.37
2018-06-18T02:04:46.911Z,18.39
2018-06-18T02:06:59.391Z,18.38
2018-06-18T02:09:12.635Z,18.36
2018-06-18T02:11:25.111Z,18.37
2018-06-18T02:13:37.484Z,18.33
2018-06-18T02:15:49.873Z,18.30
2018-06-18T02:18:02.311Z,18.22
2018-06-18T02:20:14.877Z,18.22
2018-06-18T02:22:27.253Z,18.21
2018-06-18T02:24:39.613Z,18.20
2018-06-18T02:26:57.738Z,18.21
2018-06-18T02:29:15.781Z,18.23
2018-06-18T02:31:33.875Z,18.25
2018-06-18T02:33:51.849Z,18.26
2018-06-18T02:36:09.887Z,18.29
2018-06-18T02:38:28.033Z,18.30
2018-06-18T02:40:44.398Z,18.30
2018-06-18T02:42:56.788Z,18.27
2018-06-18T02:45:09.266Z,18.23
2018-06-18T02:47:21.697Z,18.22
2018-06-18T02:49:34.269Z,18.23
2018-06-18T02:51:46.638Z,18.23
2018-06-18T02:53:59.135Z,18.23
2018-06-18T02:56:11.527Z,18.24
2018-06-18T02:58:23.943Z,18.23
2018-06-18T03:00:36.332Z,18.26
2018-06-18T03:02:48.763Z,18.24
2018-06-18T03:05:01.209Z,18.19
2018-06-18T03:07:13.646Z,18.17
2018-06-18T03:09:26.147Z,18.16
2018-06-18T03:11:39.090Z,18.16
2018-06-18T03:13:51.706Z,18.15
2018-06-18T03:16:04.184Z,18.11
2018-06-18T03:18:22.299Z,18.12
2018-06-18T03:20:40.232Z,18.14
2018-06-18T03:22:58.307Z,18.12
2018-06-18T03:25:16.490Z,18.10
2018-06-18T03:27:34.502Z,18.07
2018-06-18T03:29:46.950Z,18.05
2018-06-18T03:32:01.106Z,18.04
2018-06-18T03:34:13.678Z,18.03
2018-06-18T03:36:26.100Z,18.01
2018-06-18T03:38:38.493Z,18.05
2018-06-18T03:40:51.001Z,18.03
2018-06-18T03:43:03.420Z,18.00
2018-06-18T03:45:18.808Z,18.02
2018-06-18T03:47:31.246Z,18.00
2018-06-18T03:49:43.770Z,18.04
2018-06-18T03:51:56.142Z,18.06
2018-06-18T03:54:08.545Z,18.05
2018-06-18T03:56:21.051Z,18.04
2018-06-18T03:58:33.447Z,18.04
2018-06-18T04:01:02.317Z,18.08
2018-06-18T04:03:20.366Z,18.07
2018-06-18T04:05:38.453Z,18.09
2018-06-18T04:07:56.454Z,18.10
2018-06-18T04:10:14.606Z,18.10
2018-06-18T04:12:26.991Z,18.09
2018-06-18T04:14:39.354Z,18.02
2018-06-18T04:16:51.922Z,18.02
2018-06-18T04:19:04.410Z,18.02
2018-06-18T04:21:16.797Z,18.10
2018-06-18T04:23:29.191Z,18.14
2018-06-18T04:25:41.714Z,18.08
2018-06-18T04:27:54.074Z,17.99
2018-06-18T04:30:06.575Z,17.96
2018-06-18T04:32:19.031Z,17.99
2018-06-18T04:34:47.614Z,18.01
2018-06-18T04:37:00.071Z,18.03
2018-06-18T04:39:12.622Z,18.04
2018-06-18T04:41:25.058Z,18.03
2018-06-18T04:43:43.079Z,18.06
2018-06-18T04:46:00.966Z,18.09
2018-06-18T04:48:19.163Z,18.18
2018-06-18T04:50:37.486Z,18.29
2018-06-18T04:52:49.961Z,18.47
2018-06-18T04:55:02.642Z,18.60
2018-06-18T04:57:15.118Z,18.60
2018-06-18T04:59:27.516Z,18.60
2018-06-18T05:01:39.910Z,18.71
2018-06-18T05:03:52.595Z,18.76
2018-06-18T05:06:04.981Z,18.80
2018-06-18T05:08:54.743Z,18.68
2018-06-18T05:11:07.121Z,18.65
2018-06-18T05:13:19.467Z,18.67
2018-06-18T05:15:36.468Z,18.79
2018-06-18T05:17:48.854Z,18.92
2018-06-18T05:20:01.263Z,19.05
2018-06-18T05:22:13.790Z,19.17
2018-06-18T05:24:26.337Z,19.28
2018-06-18T05:26:42.121Z,19.36
2018-06-18T05:28:54.505Z,19.38
2018-06-18T05:31:06.901Z,19.34
2018-06-18T05:33:19.343Z,19.27
2018-06-18T05:35:31.717Z,19.24
2018-06-18T05:38:07.080Z,19.28
2018-06-18T05:40:19.438Z,19.60
2018-06-18T05:42:31.822Z,19.80
2018-06-18T05:44:44.155Z,19.91
2018-06-18T05:46:56.529Z,19.90
2018-06-18T05:49:08.944Z,19.83
2018-06-18T05:51:21.326Z,19.83
2018-06-18T05:53:33.684Z,19.88
2018-06-18T05:55:46.258Z,19.91
2018-06-18T05:57:58.900Z,19.94
2018-06-18T06:00:11.399Z,19.92
2018-06-18T06:02:23.784Z,19.90
2018-06-18T06:04:36.171Z,19.83
2018-06-18T06:06:48.506Z,19.85
2018-06-18T06:09:01.079Z,19.87
2018-06-18T06:11:13.410Z,19.90
2018-06-18T06:13:25.807Z,19.85
2018-06-18T06:15:38.336Z,19.92
2018-06-18T06:17:50.769Z,19.96
2018-06-18T06:20:03.244Z,20.06
2018-06-18T06:22:15.752Z,20.08
2018-06-18T06:24:28.258Z,20.17
2018-06-18T06:26:40.752Z,20.23
2018-06-18T06:28:53.201Z,20.25
2018-06-18T06:31:05.917Z,20.34
2018-06-18T06:33:18.310Z,20.39
2018-06-18T06:35:34.175Z,20.41
2018-06-18T06:37:46.759Z,20.49
2018-06-18T06:39:59.127Z,20.55
2018-06-18T06:42:15.271Z,20.60
2018-06-18T06:44:27.626Z,20.64
2018-06-18T06:46:40.222Z,20.73
2018-06-18T06:48:52.679Z,20.77
2018-06-18T06:51:05.158Z,20.80
2018-06-18T06:53:17.532Z,20.86
2018-06-18T06:55:29.952Z,20.88
2018-06-18T06:57:42.358Z,20.87
2018-06-18T06:59:54.790Z,20.93
2018-06-18T07:02:07.204Z,20.98
2018-06-18T07:04:19.667Z,20.98
2018-06-18T07:06:32.034Z,21.03
2018-06-18T07:08:44.535Z,21.01
2018-06-18T07:10:56.950Z,21.00
2018-06-18T07:13:11.514Z,21.05
2018-06-18T07:15:25.548Z,21.12
2018-06-18T07:17:39.071Z,21.14
2018-06-18T07:19:51.634Z,21.17
2018-06-18T07:22:04.050Z,21.14
2018-06-18T07:24:16.738Z,21.15
2018-06-18T07:26:29.098Z,21.17
2018-06-18T07:28:41.510Z,21.19
2018-06-18T07:30:53.999Z,21.15
2018-06-18T07:33:06.416Z,21.21
2018-06-18T07:35:18.968Z,21.25
2018-06-18T07:37:31.377Z,21.24
2018-06-18T07:39:44.750Z,21.31
2018-06-18T07:41:57.126Z,21.48
2018-06-18T07:44:09.534Z,21.59
2018-06-18T07:46:22.000Z,21.56
2018-06-18T07:48:34.404Z,21.60
2018-06-18T07:50:46.794Z,21.67
2018-06-18T07:52:59.163Z,21.73
2018-06-18T07:55:12.442Z,21.85
2018-06-18T07:57:24.847Z,21.88
2018-06-18T07:59:37.255Z,21.96
2018-06-18T08:01:49.934Z,21.84
2018-06-18T08:04:02.463Z,21.91
2018-06-18T08:06:14.934Z,22.12
2018-06-18T08:08:27.377Z,22.25
2018-06-18T08:10:39.842Z,22.30
2018-06-18T08:12:52.293Z,22.44
2018-06-18T08:15:04.938Z,22.56
2018-06-18T08:17:17.294Z,22.70
2018-06-18T08:19:29.647Z,22.88
2018-06-18T08:21:42.050Z,23.00
2018-06-18T08:23:54.437Z,23.24
2018-06-18T08:26:06.978Z,23.46
2018-06-18T08:28:19.386Z,23.72
2018-06-18T08:30:31.798Z,23.79
2018-06-18T08:32:44.207Z,23.65
2018-06-18T08:34:56.701Z,23.45
2018-06-18T08:37:09.171Z,23.28
2018-06-18T08:39:22.494Z,23.35
2018-06-18T08:41:35.217Z,23.45
2018-06-18T08:43:47.610Z,23.60
2018-06-18T08:46:00.037Z,23.90
2018-06-18T08:48:17.023Z,24.19
2018-06-18T08:50:35.040Z,24.48
2018-06-18T08:52:53.042Z,24.64
2018-06-18T08:55:11.069Z,24.59
2018-06-18T08:57:29.022Z,24.58
2018-06-18T08:59:47.095Z,24.98
2018-06-18T09:01:59.513Z,24.90
2018-06-18T09:04:16.054Z,25.11
2018-06-18T09:06:28.511Z,25.21
2018-06-18T09:08:46.550Z,25.19
2018-06-18T09:10:59.639Z,25.48
2018-06-18T09:13:12.118Z,25.47
2018-06-18T09:15:24.522Z,25.24
2018-06-18T09:17:37.125Z,24.71
2018-06-18T09:19:49.556Z,24.21
2018-06-18T09:22:02.034Z,23.97
2018-06-18T09:24:14.500Z,23.80
2018-06-18T09:26:26.950Z,24.03
2018-06-18T09:28:39.346Z,24.51
2018-06-18T09:30:51.908Z,24.92
2018-06-18T09:33:04.467Z,25.18
2018-06-18T09:35:16.946Z,25.17
2018-06-18T09:37:29.338Z,24.82
2018-06-18T09:39:41.815Z,24.47
2018-06-18T09:41:54.336Z,24.40
2018-06-18T09:44:06.699Z,24.33
2018-06-18T09:46:19.137Z,24.67
2018-06-18T09:48:37.015Z,24.89
2018-06-18T09:50:54.915Z,24.72
2018-06-18T09:53:13.878Z,24.78
2018-06-18T09:55:31.742Z,24.84
2018-06-18T09:57:49.701Z,24.66
2018-06-18T10:00:08.245Z,24.78
2018-06-18T10:02:20.777Z,24.88
2018-06-18T10:04:33.157Z,25.30
2018-06-18T10:06:46.139Z,25.45
2018-06-18T10:09:03.803Z,25.97
2018-06-18T10:11:16.157Z,26.46
2018-06-18T10:13:28.832Z,26.60
2018-06-18T10:15:41.167Z,26.14
2018-06-18T10:17:53.920Z,25.81
2018-06-18T10:20:06.506Z,25.72
2018-06-18T10:22:19.091Z,25.81
2018-06-18T10:24:31.739Z,25.98
2018-06-18T10:26:44.005Z,26.30
2018-06-18T10:28:57.210Z,25.77
2018-06-18T10:31:09.624Z,25.65
2018-06-18T10:33:27.572Z,25.58
2018-06-18T10:35:45.590Z,25.33
2018-06-18T10:38:04.243Z,25.22
2018-06-18T10:40:22.193Z,25.02
2018-06-18T10:42:40.076Z,24.72
2018-06-18T10:44:52.474Z,24.97
2018-06-18T10:47:04.897Z,25.53
2018-06-18T10:49:17.375Z,25.66
2018-06-18T10:51:29.750Z,25.79
2018-06-18T10:53:42.151Z,26.01
2018-06-18T10:55:54.677Z,26.10
2018-06-18T10:58:07.003Z,26.14
2018-06-18T11:00:23.392Z,25.99
2018-06-18T11:02:35.811Z,25.77
2018-06-18T11:04:53.767Z,25.51
2018-06-18T11:07:06.189Z,25.40
2018-06-18T11:09:19.663Z,25.45
2018-06-18T11:11:32.134Z,25.52
2018-06-18T11:13:44.591Z,25.84
2018-06-18T11:15:57.170Z,26.10
2018-06-18T11:18:15.106Z,26.22
2018-06-18T11:20:33.109Z,26.30
2018-06-18T11:22:51.138Z,26.39
2018-06-18T11:25:09.132Z,26.24
2018-06-18T11:27:21.514Z,26.42
2018-06-18T11:29:33.930Z,26.36
2018-06-18T11:31:46.368Z,26.45
2018-06-18T11:33:58.740Z,26.52
2018-06-18T11:36:11.251Z,26.36
2018-06-18T11:38:23.649Z,26.21
2018-06-18T11:40:36.078Z,26.24
2018-06-18T11:42:48.393Z,26.41
2018-06-18T11:45:00.786Z,26.66
2018-06-18T11:47:13.228Z,26.67
2018-06-18T11:49:25.743Z,26.59
2018-06-18T11:51:38.195Z,26.61
2018-06-18T11:53:50.595Z,26.46
2018-06-18T11:56:03.270Z,26.18
2018-06-18T11:58:21.364Z,26.34
2018-06-18T12:00:39.674Z,26.37
2018-06-18T12:02:59.792Z,26.42
2018-06-18T12:05:17.849Z,26.05
2018-06-18T12:07:36.036Z,26.06
2018-06-18T12:09:49.625Z,26.14
2018-06-18T12:12:01.942Z,26.31
2018-06-18T12:14:15.099Z,26.32
2018-06-18T12:16:27.539Z,26.13
2018-06-18T12:18:40.150Z,26.10
2018-06-18T12:20:52.594Z,26.28
2018-06-18T12:23:05.162Z,26.40
2018-06-18T12:25:17.550Z,26.44
2018-06-18T12:27:31.863Z,26.44
2018-06-18T12:29:44.330Z,26.52
2018-06-18T12:31:56.696Z,26.38
2018-06-18T12:34:09.238Z,26.25
2018-06-18T12:36:21.677Z,26.11
2018-06-18T12:38:34.275Z,25.91
2018-06-18T12:40:46.830Z,25.82
2018-06-18T12:42:59.251Z,25.80
2018-06-18T12:45:18.787Z,25.84
2018-06-18T12:47:36.991Z,25.76
2018-06-18T12:49:54.938Z,25.81
2018-06-18T12:52:13.203Z,25.89
2018-06-18T12:54:31.139Z,25.88
2018-06-18T12:57:05.806Z,25.83
2018-06-18T12:59:18.294Z,25.89
2018-06-18T13:01:33.119Z,25.92
2018-06-18T13:03:45.640Z,25.93
2018-06-18T13:05:58.130Z,25.92
2018-06-18T13:08:10.632Z,25.84
2018-06-18T13:10:22.962Z,25.90
2018-06-18T13:12:35.401Z,25.84
2018-06-18T13:14:47.805Z,25.87
2018-06-18T13:17:00.266Z,25.83
2018-06-18T13:19:12.761Z,25.78
2018-06-18T13:21:25.483Z,25.74
2018-06-18T13:23:38.018Z,25.58
2018-06-18T13:25:50.387Z,25.28
2018-06-18T13:28:08.387Z,25.25
2018-06-18T13:30:20.874Z,25.34
2018-06-18T13:32:33.373Z,25.50
2018-06-18T13:34:45.838Z,25.60
2018-06-18T13:37:03.891Z,25.72
2018-06-18T13:39:21.765Z,25.76
2018-06-18T13:41:39.765Z,25.74
2018-06-18T13:43:57.879Z,25.76
2018-06-18T13:46:15.991Z,25.74
2018-06-18T13:48:33.987Z,25.71
2018-06-18T13:50:46.430Z,25.75
2018-06-18T13:52:58.789Z,25.76
2018-06-18T13:55:11.207Z,25.61
2018-06-18T13:57:24.086Z,25.57
2018-06-18T13:59:36.587Z,25.59
2018-06-18T14:01:49.032Z,25.66
2018-06-18T14:04:01.433Z,25.59
2018-06-18T14:06:13.903Z,25.52
2018-06-18T14:08:26.294Z,25.54
2018-06-18T14:10:38.738Z,25.53
2018-06-18T14:12:51.115Z,25.51
2018-06-18T14:15:03.559Z,25.50
2018-06-18T14:17:16.131Z,25.61
2018-06-18T14:19:34.110Z,25.72
2018-06-18T14:21:46.694Z,25.76
2018-06-18T14:23:59.046Z,25.55
2018-06-18T14:26:11.489Z,25.61
2018-06-18T14:28:23.934Z,25.71
2018-06-18T14:30:42.027Z,25.76
2018-06-18T14:32:59.956Z,25.70
2018-06-18T14:35:18.127Z,25.76
2018-06-18T14:37:36.119Z,25.72
2018-06-18T14:39:52.667Z,25.75
2018-06-18T14:42:06.444Z,25.84
2018-06-18T14:44:18.771Z,25.92
2018-06-18T14:46:31.231Z,25.90
2018-06-18T14:48:43.631Z,25.92
2018-06-18T14:50:56.018Z,25.87
2018-06-18T14:53:08.523Z,25.81
2018-06-18T14:55:20.986Z,25.87
2018-06-18T14:57:33.417Z,25.84
2018-06-18T14:59:52.850Z,25.76
2018-06-18T15:02:05.335Z,25.72
2018-06-18T15:04:17.724Z,25.79
2018-06-18T15:06:30.107Z,25.76
2018-06-18T15:08:42.495Z,25.73
2018-06-18T15:10:54.918Z,25.64
2018-06-18T15:13:09.354Z,25.67
2018-06-18T15:15:27.297Z,25.69
2018-06-18T15:17:39.714Z,25.73
2018-06-18T15:19:52.098Z,25.73
2018-06-18T15:22:04.483Z,25.69
2018-06-18T15:24:28.605Z,25.78
2018-06-18T15:26:41.070Z,25.75
2018-06-18T15:28:53.434Z,25.69
2018-06-18T15:31:05.900Z,25.62
2018-06-18T15:33:18.326Z,25.61
2018-06-18T15:35:30.899Z,25.53
2018-06-18T15:37:43.316Z,25.46
2018-06-18T15:39:55.650Z,25.42
2018-06-18T15:42:08.095Z,25.32
2018-06-18T15:44:20.549Z,25.34
2018-06-18T15:46:33.029Z,25.32
2018-06-18T15:48:45.409Z,25.25
2018-06-18T15:50:57.806Z,25.23
2018-06-18T15:53:10.121Z,25.17
2018-06-18T15:55:22.564Z,25.22
2018-06-18T15:57:35.000Z,25.18
2018-06-18T15:59:47.402Z,25.07
2018-06-18T16:01:59.798Z,25.00
2018-06-18T16:04:12.219Z,24.97
2018-06-18T16:06:24.670Z,24.93
2018-06-18T16:08:37.147Z,24.90
2018-06-18T16:10:49.627Z,24.91
2018-06-18T16:13:02.064Z,24.98
2018-06-18T16:15:14.536Z,24.94
2018-06-18T16:17:26.889Z,24.94
2018-06-18T16:19:39.331Z,24.93
2018-06-18T16:21:51.693Z,24.91
2018-06-18T16:24:04.134Z,24.89
2018-06-18T16:26:16.748Z,24.96
2018-06-18T16:28:29.129Z,25.00
2018-06-18T16:30:41.533Z,25.03
2018-06-18T16:32:53.921Z,25.03
2018-06-18T16:35:06.356Z,24.94
2018-06-18T16:37:18.802Z,24.87
2018-06-18T16:39:32.190Z,24.87
2018-06-18T16:41:44.623Z,24.93
2018-06-18T16:43:56.991Z,24.95
2018-06-18T16:46:09.381Z,24.94
2018-06-18T16:48:21.814Z,24.85
2018-06-18T16:50:34.146Z,24.87
2018-06-18T16:52:46.518Z,24.90
2018-06-18T16:54:58.891Z,24.95
2018-06-18T16:57:11.334Z,24.98
2018-06-18T16:59:23.710Z,24.99
2018-06-18T17:01:36.090Z,25.05
2018-06-18T17:03:49.344Z,25.08
2018-06-18T17:06:01.794Z,25.07
2018-06-18T17:08:14.135Z,24.92
2018-06-18T17:10:26.598Z,24.84
2018-06-18T17:12:39.114Z,24.91
2018-06-18T17:14:51.921Z,24.81
2018-06-18T17:17:04.415Z,24.74
2018-06-18T17:19:16.822Z,24.64
2018-06-18T17:21:29.311Z,24.51
2018-06-18T17:23:41.734Z,24.43
2018-06-18T17:25:54.103Z,24.33
2018-06-18T17:28:06.748Z,24.25
2018-06-18T17:30:19.943Z,24.22
2018-06-18T17:32:32.430Z,24.12
2018-06-18T17:34:44.922Z,24.02
2018-06-18T17:36:57.471Z,24.01
2018-06-18T17:39:11.507Z,24.01
2018-06-18T17:41:23.903Z,24.02
2018-06-18T17:43:36.361Z,23.90
2018-06-18T17:45:48.822Z,23.82
2018-06-18T17:48:01.366Z,23.80
2018-06-18T17:50:13.675Z,23.80
2018-06-18T17:52:26.058Z,23.71
2018-06-18T17:54:38.474Z,23.62
2018-06-18T17:56:51.010Z,23.58
2018-06-18T17:59:03.517Z,23.57
2018-06-18T18:01:15.987Z,23.54
2018-06-18T18:03:28.664Z,23.54
2018-06-18T18:05:41.168Z,23.48
2018-06-18T18:07:53.602Z,23.47
2018-06-18T18:10:06.125Z,23.42
2018-06-18T18:12:18.541Z,23.36
2018-06-18T18:14:31.158Z,23.39
2018-06-18T18:16:43.549Z,23.34
2018-06-18T18:18:56.012Z,23.26
2018-06-18T18:21:08.364Z,23.21
2018-06-18T18:23:20.810Z,23.18
2018-06-18T18:25:33.159Z,23.12
2018-06-18T18:27:45.680Z,23.10
2018-06-18T18:29:58.079Z,23.11
2018-06-18T18:32:10.474Z,23.08
2018-06-18T18:34:23.029Z,22.99
2018-06-18T18:36:35.456Z,22.91
2018-06-18T18:38:47.878Z,22.85
2018-06-18T18:41:00.495Z,22.81
2018-06-18T18:43:12.886Z,22.79
2018-06-18T18:45:25.249Z,22.81
2018-06-18T18:47:37.565Z,22.83
2018-06-18T18:49:49.945Z,22.86
2018-06-18T18:52:02.307Z,22.88
2018-06-18T18:55:27.594Z,22.83
2018-06-18T18:57:51.346Z,22.75
2018-06-18T19:00:03.866Z,22.66
2018-06-18T19:02:16.233Z,22.64
2018-06-18T19:04:33.114Z,22.59
2018-06-18T19:06:45.655Z,22.53
2018-06-18T19:08:58.090Z,22.49
2018-06-18T19:11:10.533Z,22.48
2018-06-18T19:13:25.518Z,22.40
2018-06-18T19:15:38.228Z,22.35
2018-06-18T19:17:50.873Z,22.33
2018-06-18T19:20:07.427Z,22.28
2018-06-18T19:22:19.852Z,22.21
2018-06-18T19:24:32.286Z,22.16
2018-06-18T19:26:44.755Z,22.12
2018-06-18T19:28:57.259Z,22.10
2018-06-18T19:31:13.134Z,22.08
2018-06-18T19:33:31.814Z,22.08
2018-06-18T19:35:44.304Z,22.01
2018-06-18T19:37:56.795Z,21.92
2018-06-18T19:40:09.178Z,21.81
2018-06-18T19:42:21.618Z,21.74
2018-06-18T19:44:34.114Z,21.70
2018-06-18T19:47:24.782Z,21.63
2018-06-18T19:49:37.126Z,21.55
2018-06-18T19:51:49.451Z,21.45
2018-06-18T19:54:01.881Z,21.37
2018-06-18T19:56:14.299Z,21.32
2018-06-18T19:58:26.647Z,21.24
2018-06-18T20:00:42.653Z,21.14
2018-06-18T20:02:55.404Z,20.97
2018-06-18T20:05:12.965Z,20.72
2018-06-18T20:07:26.070Z,20.59
2018-06-18T20:09:38.575Z,20.45
2018-06-18T20:11:50.991Z,20.36
2018-06-18T20:14:03.531Z,20.24
2018-06-18T20:16:15.997Z,20.05
2018-06-18T20:18:28.435Z,19.85
2018-06-18T20:20:40.822Z,19.74
2018-06-18T20:22:53.275Z,19.58
2018-06-18T20:25:06.303Z,19.55
2018-06-18T20:27:18.693Z,19.58
2018-06-18T20:29:31.215Z,19.57
2018-06-18T20:31:45.380Z,19.57
2018-06-18T20:33:58.065Z,19.54
2018-06-18T20:36:12.248Z,19.48
2018-06-18T20:38:24.647Z,19.45
2018-06-18T20:40:37.050Z,19.37
2018-06-18T20:42:49.713Z,19.35
2018-06-18T20:45:02.127Z,19.21
2018-06-18T20:47:14.548Z,19.09
2018-06-18T20:49:27.034Z,19.00
2018-06-18T20:51:39.754Z,19.01
2018-06-18T20:53:52.180Z,19.02
2018-06-18T20:56:04.777Z,18.97
2018-06-18T20:58:17.186Z,18.96
2018-06-18T21:00:29.606Z,18.95
2018-06-18T21:02:42.108Z,18.87
2018-06-18T21:04:54.584Z,18.77
2018-06-18T21:07:07.013Z,18.76
2018-06-18T21:09:19.414Z,18.74
2018-06-18T21:11:31.835Z,18.69
2018-06-18T21:13:44.214Z,18.65
2018-06-18T21:15:56.616Z,18.66
2018-06-18T21:18:09.067Z,18.57
2018-06-18T21:20:21.644Z,18.48
2018-06-18T21:22:34.204Z,18.46
2018-06-18T21:24:46.610Z,18.34
2018-06-18T21:26:59.037Z,18.28
2018-06-18T21:29:11.438Z,18.27
2018-06-18T21:31:23.850Z,18.29
2018-06-18T21:33:36.708Z,18.32
2018-06-18T21:35:49.191Z,18.21
2018-06-18T21:38:01.665Z,18.19
2018-06-18T21:40:14.075Z,18.11
2018-06-18T21:42:26.495Z,18.03
2018-06-18T21:45:13.731Z,17.99
2018-06-18T21:47:26.154Z,17.94
2018-06-18T21:49:38.511Z,17.92
2018-06-18T21:51:51.622Z,17.92
2018-06-18T21:54:04.067Z,17.91
2018-06-18T21:56:16.482Z,17.88
2018-06-18T21:58:28.974Z,17.87
2018-06-18T22:00:46.838Z,17.87
2018-06-18T22:02:59.281Z,17.86
2018-06-18T22:05:11.668Z,17.83
2018-06-18T22:07:24.039Z,17.84
2018-06-18T22:09:36.450Z,17.84
2018-06-18T22:11:52.052Z,17.82
2018-06-18T22:14:04.558Z,17.81
2018-06-18T22:16:16.963Z,17.77
2018-06-18T22:18:29.322Z,17.75
2018-06-18T22:20:42.022Z,17.73
2018-06-18T22:22:54.425Z,17.70
2018-06-18T22:25:06.836Z,17.71
2018-06-18T22:27:19.211Z,17.67
2018-06-18T22:29:31.770Z,17.62
2018-06-18T22:31:44.242Z,17.60
2018-06-18T22:33:56.731Z,17.57
2018-06-18T22:36:09.198Z,17.57
2018-06-18T22:38:21.648Z,17.61
2018-06-18T22:40:33.993Z,17.66
2018-06-18T22:42:46.414Z,17.71
2018-06-18T22:44:58.838Z,17.70
2018-06-18T22:47:11.334Z,17.69
2018-06-18T22:49:23.819Z,17.62
2018-06-18T22:51:36.262Z,17.59
2018-06-18T22:53:48.698Z,17.56
2018-06-18T22:56:01.184Z,17.52
2018-06-18T22:58:13.710Z,17.50
2018-06-18T23:00:26.107Z,17.47
2018-06-18T23:02:38.490Z,17.43
2018-06-18T23:04:51.015Z,17.40
2018-06-18T23:07:04.276Z,17.40
2018-06-18T23:09:16.687Z,17.36
2018-06-18T23:11:29.105Z,17.28
2018-06-18T23:13:41.533Z,17.27
2018-06-18T23:15:53.978Z,17.23
2018-06-18T23:18:06.413Z,17.20
2018-06-18T23:20:18.774Z,17.19
2018-06-18T23:22:31.167Z,17.21
2018-06-18T23:24:43.598Z,17.23
2018-06-18T23:26:56.070Z,17.22
2018-06-18T23:29:10.679Z,17.17
2018-06-18T23:31:23.152Z,17.15
2018-06-18T23:33:35.601Z,17.16
2018-06-18T23:35:48.105Z,17.21
2018-06-18T23:38:00.613Z,17.23
2018-06-18T23:40:13.074Z,17.22
2018-06-18T23:42:25.454Z,17.21
2018-06-18T23:44:37.943Z,17.19
2018-06-18T23:46:50.363Z,17.18
2018-06-18T23:49:02.810Z,17.17
2018-06-18T23:51:15.318Z,17.10
2018-06-18T23:53:27.889Z,17.05
2018-06-18T23:55:40.315Z,17.03
2018-06-18T23:57:52.724Z,17.05
